createdAt,value
2023-03-13T00:01:29.565Z,9.20
2023-03-13T00:03:56.947Z,9.20
2023-03-13T00:06:26.716Z,9.20
2023-03-13T00:08:55.909Z,9.20
2023-03-13T00:11:22.960Z,9.30
2023-03-13T00:13:55.512Z,9.30
2023-03-13T00:16:22.721Z,9.30
2023-03-13T00:18:52.583Z,9.40
2023-03-13T00:21:22.449Z,9.30
2023-03-13T00:23:50.100Z,9.40
2023-03-13T00:26:20.715Z,9.40
2023-03-13T00:28:48.527Z,9.50
2023-03-13T00:31:18.594Z,9.50
2023-03-13T00:33:48.836Z,9.50
2023-03-13T00:36:25.168Z,9.50
2023-03-13T00:38:53.612Z,9.50
2023-03-13T00:41:29.704Z,9.40
2023-03-13T00:43:57.102Z,9.50
2023-03-13T00:46:27.407Z,9.40
2023-03-13T00:48:54.589Z,9.50
2023-03-13T00:51:27.049Z,9.50
2023-03-13T00:53:56.205Z,9.50
2023-03-13T00:56:23.432Z,9.50
2023-03-13T00:58:51.131Z,9.50
2023-03-13T01:01:28.464Z,9.50
2023-03-13T01:03:59.598Z,9.50
2023-03-13T01:06:29.897Z,9.60
2023-03-13T01:08:59.155Z,9.60
2023-03-13T01:11:30.802Z,9.70
2023-03-13T01:14:02.287Z,9.70
2023-03-13T01:16:32.727Z,9.70
2023-03-13T01:19:03.124Z,9.70
2023-03-13T01:21:30.683Z,9.70
2023-03-13T01:23:58.373Z,9.70
2023-03-13T01:26:26.339Z,9.70
2023-03-13T01:28:54.642Z,9.70
2023-03-13T01:31:39.980Z,9.80
2023-03-13T01:34:09.849Z,9.80
2023-03-13T01:36:38.046Z,9.90
2023-03-13T01:39:06.297Z,9.90
2023-03-13T01:41:33.730Z,9.90
2023-03-13T01:44:01.067Z,9.90
2023-03-13T01:46:36.767Z,9.90
2023-03-13T01:49:34.674Z,10.00
2023-03-13T01:52:27.580Z,10.00
2023-03-13T01:55:09.736Z,10.00
2023-03-13T01:57:46.065Z,10.00
2023-03-13T02:00:18.640Z,10.00
2023-03-13T02:02:55.784Z,10.00
2023-03-13T02:05:26.484Z,10.00
2023-03-13T02:08:12.276Z,10.00
2023-03-13T02:10:50.465Z,10.00
2023-03-13T02:13:18.742Z,10.00
2023-03-13T02:15:46.649Z,10.00
2023-03-13T02:18:15.361Z,10.00
2023-03-13T02:20:42.783Z,10.00
2023-03-13T02:23:42.340Z,9.90
2023-03-13T02:26:09.463Z,9.80
2023-03-13T02:28:39.403Z,9.80
2023-03-13T02:31:11.128Z,9.80
2023-03-13T02:33:41.482Z,9.80
2023-03-13T02:36:12.749Z,9.80
2023-03-13T02:38:49.554Z,9.80
2023-03-13T02:41:19.136Z,9.70
2023-03-13T02:43:46.400Z,9.60
2023-03-13T02:46:18.669Z,9.60
2023-03-13T02:48:57.258Z,9.60
2023-03-13T02:51:36.700Z,9.70
2023-03-13T02:54:10.753Z,9.70
2023-03-13T02:56:40.979Z,9.70
2023-03-13T02:59:09.719Z,9.50
2023-03-13T03:01:39.744Z,9.50
2023-03-13T03:04:06.948Z,9.40
2023-03-13T03:06:34.300Z,9.40
2023-03-13T03:09:03.858Z,9.40
2023-03-13T03:11:34.169Z,9.40
2023-03-13T03:14:06.855Z,9.40
2023-03-13T03:16:39.492Z,9.40
2023-03-13T03:19:06.931Z,9.20
2023-03-13T03:21:34.871Z,9.20
2023-03-13T03:24:02.226Z,9.20
2023-03-13T03:26:29.391Z,9.10
2023-03-13T03:28:57.053Z,9.10
2023-03-13T03:31:24.575Z,9.10
2023-03-13T03:33:51.617Z,9.20
2023-03-13T03:36:22.785Z,9.20
2023-03-13T03:38:50.816Z,9.30
2023-03-13T03:41:21.001Z,9.20
2023-03-13T03:43:49.249Z,9.20
2023-03-13T03:46:19.547Z,9.20
2023-03-13T03:48:46.652Z,9.10
2023-03-13T03:51:14.510Z,9.10
2023-03-13T03:53:44.022Z,9.10
2023-03-13T03:56:11.004Z,9.00
2023-03-13T03:58:43.158Z,9.00
2023-03-13T04:01:16.763Z,9.00
2023-03-13T04:03:44.215Z,8.90
2023-03-13T04:06:12.840Z,8.90
2023-03-13T04:08:39.998Z,8.90
2023-03-13T04:11:08.232Z,8.90
2023-03-13T04:13:38.731Z,8.90
2023-03-13T04:16:09.695Z,8.90
2023-03-13T04:18:37.525Z,8.90
2023-03-13T04:21:06.242Z,8.90
2023-03-13T04:23:53.520Z,8.80
2023-03-13T04:26:21.148Z,8.80
2023-03-13T04:28:51.061Z,8.80
2023-03-13T04:31:24.316Z,8.80
2023-03-13T04:34:26.600Z,8.80
2023-03-13T04:37:07.354Z,9.10
2023-03-13T04:39:53.880Z,9.50
2023-03-13T04:42:49.823Z,9.90
2023-03-13T04:45:46.597Z,10.00
2023-03-13T04:48:22.768Z,10.10
2023-03-13T04:51:07.166Z,10.40
2023-03-13T04:53:57.048Z,10.60
2023-03-13T04:56:44.428Z,10.80
2023-03-13T04:59:26.456Z,10.90
2023-03-13T05:02:13.955Z,10.90
2023-03-13T05:04:52.690Z,11.00
2023-03-13T05:07:48.650Z,11.20
2023-03-13T05:10:33.896Z,11.30
2023-03-13T05:13:26.799Z,11.50
2023-03-13T05:16:10.537Z,11.60
2023-03-13T05:19:16.223Z,11.60
2023-03-13T05:22:00.993Z,11.70
2023-03-13T05:24:46.510Z,11.70
2023-03-13T05:27:28.570Z,11.60
2023-03-13T05:30:14.180Z,11.60
2023-03-13T05:33:02.222Z,11.60
2023-03-13T05:35:43.210Z,11.60
2023-03-13T05:38:45.845Z,11.70
2023-03-13T05:41:12.818Z,11.80
2023-03-13T05:43:39.841Z,11.90
2023-03-13T05:46:22.840Z,11.90
2023-03-13T05:48:57.304Z,11.80
2023-03-13T05:51:47.225Z,11.90
2023-03-13T05:54:34.261Z,11.90
2023-03-13T05:57:10.364Z,11.90
2023-03-13T05:59:57.607Z,11.90
2023-03-13T06:02:53.908Z,12.00
2023-03-13T06:05:28.106Z,11.80
2023-03-13T06:07:55.248Z,11.60
2023-03-13T06:10:22.294Z,11.50
2023-03-13T06:12:56.857Z,11.40
2023-03-13T06:15:28.377Z,11.40
2023-03-13T06:17:59.293Z,11.30
2023-03-13T06:20:26.321Z,11.40
2023-03-13T06:22:54.487Z,11.50
2023-03-13T06:25:22.473Z,11.60
2023-03-13T06:27:49.409Z,11.60
2023-03-13T06:30:16.792Z,11.60
2023-03-13T06:32:43.818Z,11.70
2023-03-13T06:35:10.928Z,11.70
2023-03-13T06:37:38.017Z,11.80
2023-03-13T06:40:06.956Z,11.80
2023-03-13T06:42:33.983Z,11.90
2023-03-13T06:45:00.965Z,12.00
2023-03-13T06:47:27.883Z,12.10
2023-03-13T06:49:54.825Z,12.10
2023-03-13T06:52:26.432Z,12.10
2023-03-13T06:54:58.463Z,12.10
2023-03-13T06:57:25.538Z,12.20
2023-03-13T06:59:52.597Z,12.20
2023-03-13T07:02:19.508Z,12.20
2023-03-13T07:04:46.607Z,12.30
2023-03-13T07:07:25.541Z,12.30
2023-03-13T07:09:53.026Z,12.30
2023-03-13T07:12:20.041Z,12.30
2023-03-13T07:14:47.047Z,12.30
2023-03-13T07:17:13.963Z,12.40
2023-03-13T07:19:41.175Z,12.40
2023-03-13T07:22:08.164Z,12.50
2023-03-13T07:24:35.184Z,12.50
2023-03-13T07:27:07.600Z,12.50
2023-03-13T07:29:34.870Z,12.50
2023-03-13T07:32:02.023Z,12.50
2023-03-13T07:34:29.152Z,12.50
2023-03-13T07:36:56.152Z,12.50
2023-03-13T07:39:23.243Z,12.50
2023-03-13T07:41:50.204Z,12.40
2023-03-13T07:44:18.236Z,12.40
2023-03-13T07:46:46.004Z,12.20
2023-03-13T07:49:13.474Z,12.20
2023-03-13T07:51:43.796Z,12.10
2023-03-13T07:54:11.938Z,12.10
2023-03-13T07:56:39.728Z,12.10
2023-03-13T07:59:07.110Z,12.10
2023-03-13T08:01:34.169Z,12.10
2023-03-13T08:04:01.713Z,12.20
2023-03-13T08:06:34.248Z,12.20
2023-03-13T08:09:02.479Z,12.30
2023-03-13T08:11:29.788Z,12.40
2023-03-13T08:13:58.397Z,12.40
2023-03-13T08:16:29.965Z,12.50
2023-03-13T08:18:58.835Z,12.60
2023-03-13T08:21:29.328Z,12.70
2023-03-13T08:23:59.598Z,12.70
2023-03-13T08:26:29.676Z,12.80
2023-03-13T08:29:03.841Z,12.90
2023-03-13T08:31:47.515Z,13.10
2023-03-13T08:34:16.743Z,13.30
2023-03-13T08:36:43.836Z,13.40
2023-03-13T08:39:19.668Z,13.40
2023-03-13T08:41:47.407Z,13.50
2023-03-13T08:44:17.971Z,13.70
2023-03-13T08:46:45.433Z,13.90
2023-03-13T08:49:13.384Z,14.10
2023-03-13T08:51:40.850Z,14.10
2023-03-13T08:54:07.974Z,14.20
2023-03-13T08:56:35.156Z,14.60
2023-03-13T08:59:04.585Z,15.00
2023-03-13T09:01:34.722Z,15.20
2023-03-13T09:04:04.722Z,14.90
2023-03-13T09:06:33.867Z,14.80
2023-03-13T09:09:01.783Z,14.80
2023-03-13T09:11:29.160Z,14.90
2023-03-13T09:13:59.209Z,14.90
2023-03-13T09:16:29.361Z,14.90
2023-03-13T09:18:58.369Z,14.90
2023-03-13T09:21:32.174Z,14.70
2023-03-13T09:23:59.964Z,14.70
2023-03-13T09:26:28.086Z,14.60
2023-03-13T09:28:55.583Z,14.50
2023-03-13T09:31:32.089Z,14.50
2023-03-13T09:34:00.653Z,14.30
2023-03-13T09:36:28.553Z,14.50
2023-03-13T09:38:59.065Z,14.40
2023-03-13T09:41:40.652Z,14.50
2023-03-13T09:44:39.706Z,14.60
2023-03-13T09:47:30.541Z,14.70
2023-03-13T09:50:12.488Z,14.60
2023-03-13T09:52:41.608Z,14.60
2023-03-13T09:55:21.468Z,14.60
2023-03-13T09:58:11.324Z,14.60
2023-03-13T10:00:44.192Z,14.60
2023-03-13T10:03:11.033Z,14.50
2023-03-13T10:05:50.020Z,14.50
2023-03-13T10:08:20.647Z,14.60
2023-03-13T10:11:09.265Z,14.80
2023-03-13T10:14:17.552Z,15.20
2023-03-13T10:17:15.874Z,15.50
2023-03-13T10:19:43.762Z,15.80
2023-03-13T10:22:20.439Z,16.20
2023-03-13T10:25:09.766Z,16.50
2023-03-13T10:27:51.198Z,16.60
2023-03-13T10:30:31.533Z,16.60
2023-03-13T10:33:07.083Z,16.60
2023-03-13T10:35:37.719Z,17.40
2023-03-13T10:38:15.000Z,18.30
2023-03-13T10:40:42.913Z,18.50
2023-03-13T10:43:22.582Z,19.20
2023-03-13T10:45:49.645Z,19.80
2023-03-13T10:48:22.205Z,19.90
2023-03-13T10:50:57.262Z,19.70
2023-03-13T10:53:28.381Z,20.00
2023-03-13T10:56:05.265Z,20.20
2023-03-13T11:28:15.611Z,20.40
2023-03-13T11:33:53.470Z,22.40
2023-03-13T11:36:52.694Z,22.40
2023-03-13T11:40:15.025Z,22.40
2023-03-13T11:43:17.953Z,22.80
2023-03-13T19:09:54.334Z,22.90
2023-03-13T19:12:21.361Z,13.40
2023-03-13T19:14:48.327Z,13.20
2023-03-13T19:17:29.540Z,13.20
2023-03-13T19:32:19.211Z,13.20
2023-03-13T19:34:46.282Z,11.90
2023-03-13T19:42:10.714Z,12.00
2023-03-13T19:44:40.217Z,11.80
2023-03-13T19:47:07.421Z,12.00
2023-03-13T19:49:34.398Z,12.20
2023-03-13T19:52:01.390Z,12.30
2023-03-13T19:54:28.368Z,12.50
2023-03-13T19:56:55.337Z,12.60
2023-03-13T19:59:27.929Z,12.60
2023-03-13T20:01:59.583Z,12.70
2023-03-13T20:04:27.934Z,12.70
2023-03-13T20:06:55.176Z,12.70
2023-03-13T20:09:23.116Z,12.70
2023-03-13T20:11:50.216Z,12.70
2023-03-13T20:14:17.189Z,12.70
2023-03-13T20:16:46.503Z,12.70
2023-03-13T20:19:13.538Z,12.60
2023-03-13T20:21:42.001Z,12.40
2023-03-13T20:24:10.527Z,12.40
2023-03-13T20:26:37.496Z,12.50
2023-03-13T20:29:04.640Z,12.40
2023-03-13T20:31:32.253Z,12.40
2023-03-13T20:33:59.857Z,12.30
2023-03-13T20:36:27.737Z,12.10
2023-03-13T20:38:55.073Z,11.80
2023-03-13T20:41:25.040Z,11.30
2023-03-13T20:43:53.177Z,11.00
2023-03-13T20:46:20.809Z,10.70
2023-03-13T20:48:48.402Z,10.60
2023-03-13T20:51:15.860Z,10.50
2023-03-13T20:53:43.287Z,10.50
2023-03-13T20:56:11.682Z,10.50
2023-03-13T20:58:39.554Z,10.40
2023-03-13T21:01:07.802Z,10.50
2023-03-13T21:03:36.279Z,10.50
2023-03-13T21:06:10.592Z,10.50
2023-03-13T21:08:38.883Z,10.50
2023-03-13T21:11:33.732Z,10.40
2023-03-13T21:14:00.794Z,10.30
2023-03-13T21:16:27.898Z,10.10
2023-03-13T21:18:54.914Z,10.00
2023-03-13T21:23:52.188Z,9.80
2023-03-13T21:26:19.826Z,9.60
